createdAt,value
2019-06-15T00:00:58.034Z,5.28
2019-06-15T00:03:28.669Z,5.37
2019-06-15T00:05:59.285Z,6.05
2019-06-15T00:08:29.405Z,6.22
2019-06-15T00:10:59.762Z,6.33
2019-06-15T00:13:30.004Z,5.78
2019-06-15T00:16:00.312Z,5.37
2019-06-15T00:18:30.540Z,6.03
2019-06-15T00:21:00.770Z,6.57
2019-06-15T00:23:30.878Z,5.75
2019-06-15T00:26:01.101Z,6.40
2019-06-15T00:28:31.281Z,6.97
2019-06-15T00:31:01.542Z,6.57
2019-06-15T00:33:31.951Z,6.67
2019-06-15T00:36:02.144Z,7.37
2019-06-15T00:38:32.497Z,7.30
2019-06-15T00:41:02.761Z,7.50
2019-06-15T00:43:33.055Z,6.97
2019-06-15T00:46:03.328Z,7.05
2019-06-15T00:48:33.686Z,7.00
2019-06-15T00:51:03.919Z,6.80
2019-06-15T00:53:34.496Z,7.17
2019-06-15T00:56:04.713Z,6.90
2019-06-15T00:58:35.386Z,7.17
2019-06-15T01:01:05.643Z,7.17
2019-06-15T01:03:35.794Z,7.70
2019-06-15T01:06:05.996Z,8.10
2019-06-15T01:08:36.279Z,7.92
2019-06-15T01:11:06.837Z,7.27
2019-06-15T01:13:37.109Z,8.13
2019-06-15T01:16:07.339Z,7.77
2019-06-15T01:18:38.171Z,7.47
2019-06-15T01:21:08.685Z,8.37
2019-06-15T01:23:38.993Z,7.83
2019-06-15T01:26:09.189Z,7.77
2019-06-15T01:28:39.388Z,7.10
2019-06-15T01:31:09.635Z,7.23
2019-06-15T01:33:39.881Z,7.30
2019-06-15T01:36:10.449Z,8.15
2019-06-15T01:38:40.770Z,7.70
2019-06-15T01:41:11.296Z,8.40
2019-06-15T01:43:41.827Z,7.93
2019-06-15T01:46:12.045Z,8.10
2019-06-15T01:48:43.788Z,8.35
2019-06-15T01:51:13.988Z,8.10
2019-06-15T01:53:44.362Z,8.08
2019-06-15T01:56:14.587Z,8.93
2019-06-15T01:58:44.930Z,8.30
2019-06-15T02:01:15.165Z,9.63
2019-06-15T02:03:45.463Z,8.65
2019-06-15T02:06:15.673Z,10.03
2019-06-15T02:08:45.919Z,9.17
2019-06-15T02:11:16.286Z,8.28
2019-06-15T02:13:46.544Z,9.28
2019-06-15T02:16:16.919Z,8.85
2019-06-15T02:18:47.192Z,9.55
2019-06-15T02:21:17.410Z,8.70
2019-06-15T02:23:47.715Z,8.55
2019-06-15T02:26:17.963Z,8.58
2019-06-15T02:28:48.216Z,8.20
2019-06-15T02:31:18.496Z,8.23
2019-06-15T02:33:48.769Z,7.90
2019-06-15T02:36:19.008Z,8.17
2019-06-15T02:38:49.580Z,8.30
2019-06-15T02:41:19.815Z,8.30
2019-06-15T02:43:50.205Z,7.77
2019-06-15T02:46:20.716Z,7.80
2019-06-15T02:48:50.966Z,8.50
2019-06-15T02:51:21.673Z,7.80
2019-06-15T02:53:51.925Z,7.72
2019-06-15T02:56:22.461Z,7.83
2019-06-15T02:58:52.690Z,8.40
2019-06-15T03:01:22.963Z,8.08
2019-06-15T03:03:53.249Z,8.23
2019-06-15T03:06:23.610Z,8.70
2019-06-15T03:08:54.379Z,9.33
2019-06-15T03:11:24.635Z,8.53
2019-06-15T03:13:55.841Z,8.98
2019-06-15T03:16:26.107Z,9.57
2019-06-15T03:18:56.425Z,9.13
2019-06-15T03:21:26.707Z,8.87
2019-06-15T03:23:57.042Z,9.47
2019-06-15T03:26:27.576Z,9.70
2019-06-15T03:28:58.165Z,10.23
2019-06-15T03:31:28.570Z,9.97
2019-06-15T03:33:58.794Z,10.60
2019-06-15T03:36:29.323Z,11.20
2019-06-15T03:38:59.603Z,10.90
2019-06-15T03:41:29.872Z,10.40
2019-06-15T03:44:00.093Z,10.93
2019-06-15T03:46:30.757Z,11.07
2019-06-15T03:49:00.977Z,10.87
2019-06-15T03:51:31.519Z,10.73
2019-06-15T03:54:01.925Z,10.20
2019-06-15T03:56:32.673Z,10.70
2019-06-15T03:59:03.324Z,10.40
2019-06-15T04:01:42.994Z,11.27
2019-06-15T04:04:13.260Z,10.53
2019-06-15T04:06:43.978Z,10.72
2019-06-15T04:09:14.218Z,10.83
2019-06-15T04:11:44.556Z,10.73
2019-06-15T04:14:14.840Z,10.23
2019-06-15T04:16:45.469Z,11.83
2019-06-15T04:19:15.852Z,10.73
2019-06-15T04:21:46.148Z,10.63
2019-06-15T04:24:16.559Z,11.17
2019-06-15T04:26:47.072Z,10.07
2019-06-15T04:29:17.684Z,10.70
2019-06-15T04:31:47.909Z,10.27
2019-06-15T04:34:18.313Z,11.43
2019-06-15T04:36:48.818Z,10.88
2019-06-15T04:39:38.030Z,10.23
2019-06-15T04:42:08.256Z,9.90
2019-06-15T04:44:38.297Z,10.28
2019-06-15T04:47:08.415Z,10.73
2019-06-15T04:49:38.587Z,11.10
2019-06-15T04:52:08.694Z,10.40
2019-06-15T04:54:38.879Z,10.63
2019-06-15T04:57:08.965Z,10.25
2019-06-15T04:59:38.994Z,10.26
2019-06-15T05:02:09.209Z,10.97
2019-06-15T05:04:39.270Z,10.48
2019-06-15T05:07:09.278Z,10.63
2019-06-15T05:09:39.323Z,11.90
2019-06-15T05:12:09.418Z,11.60
2019-06-15T05:14:39.553Z,12.23
2019-06-15T05:17:09.640Z,12.23
2019-06-15T05:19:39.853Z,11.60
2019-06-15T05:22:09.896Z,11.47
2019-06-15T05:24:40.018Z,11.37
2019-06-15T05:27:10.033Z,11.13
2019-06-15T05:29:40.205Z,11.03
2019-06-15T05:32:10.303Z,10.48
2019-06-15T05:34:40.378Z,10.73
2019-06-15T05:37:10.472Z,10.10
2019-06-15T05:39:40.511Z,9.53
2019-06-15T05:42:10.708Z,9.10
2019-06-15T05:44:40.859Z,9.50
2019-06-15T05:47:12.063Z,8.83
2019-06-15T05:49:42.133Z,8.97
2019-06-15T05:52:12.395Z,8.93
2019-06-15T05:54:42.527Z,9.07
2019-06-15T05:57:21.314Z,8.90
2019-06-15T05:59:44.728Z,7.43
2019-06-15T06:02:14.959Z,9.30
2019-06-15T06:04:45.170Z,8.10
2019-06-15T06:07:15.373Z,8.30
2019-06-15T06:09:45.411Z,7.87
2019-06-15T06:12:15.699Z,8.60
2019-06-15T06:14:45.813Z,8.83
2019-06-15T06:17:15.985Z,8.60
2019-06-15T06:19:46.087Z,8.07
2019-06-15T06:22:16.265Z,8.28
2019-06-15T06:24:46.282Z,7.83
2019-06-15T06:27:16.507Z,8.43
2019-06-15T06:29:46.678Z,8.70
2019-06-15T06:32:16.807Z,8.00
2019-06-15T06:34:46.945Z,8.43
2019-06-15T06:37:17.120Z,8.23
2019-06-15T06:39:47.345Z,8.87
2019-06-15T06:42:17.505Z,8.45
2019-06-15T06:44:47.658Z,9.43
2019-06-15T06:47:17.871Z,9.00
2019-06-15T06:49:48.109Z,9.53
2019-06-15T06:52:18.237Z,9.10
2019-06-15T06:54:48.563Z,8.30
2019-06-15T06:57:18.692Z,8.05
2019-06-15T06:59:48.659Z,7.87
2019-06-15T07:02:22.007Z,7.40
2019-06-15T07:04:52.104Z,7.70
2019-06-15T07:07:22.317Z,7.42
2019-06-15T07:09:52.460Z,7.50
2019-06-15T07:12:22.937Z,7.15
2019-06-15T07:14:53.026Z,7.45
2019-06-15T07:17:23.244Z,8.18
2019-06-15T07:19:55.277Z,8.48
2019-06-15T07:22:25.471Z,10.40
2019-06-15T07:24:55.705Z,12.25
2019-06-15T07:27:25.824Z,16.02
2019-06-15T07:29:56.061Z,17.90
2019-06-15T07:32:26.192Z,19.17
2019-06-15T07:34:58.448Z,17.32
2019-06-15T07:37:28.671Z,18.40
2019-06-15T07:39:58.921Z,18.50
2019-06-15T07:42:29.121Z,18.27
2019-06-15T07:44:59.160Z,18.77
2019-06-15T07:47:29.447Z,19.23
2019-06-15T07:50:08.828Z,19.70
2019-06-15T07:52:38.973Z,18.25
2019-06-15T07:55:09.631Z,17.98
2019-06-15T07:57:39.878Z,18.73
2019-06-15T08:00:11.600Z,19.37
2019-06-15T08:02:41.838Z,18.55
2019-06-15T08:05:13.285Z,17.50
2019-06-15T08:07:43.528Z,18.25
2019-06-15T08:10:14.804Z,15.90
2019-06-15T08:12:44.995Z,16.52
2019-06-15T08:15:16.429Z,15.88
2019-06-15T08:17:46.545Z,15.53
2019-06-15T08:20:18.315Z,15.50
2019-06-15T08:22:48.375Z,15.48
2019-06-15T08:25:18.799Z,14.97
2019-06-15T08:27:49.001Z,14.30
2019-06-15T08:30:26.801Z,14.33
2019-06-15T08:32:57.103Z,12.70
2019-06-15T08:35:27.255Z,12.57
2019-06-15T08:37:57.453Z,13.27
2019-06-15T08:40:27.746Z,13.20
2019-06-15T08:42:57.971Z,12.30
2019-06-15T08:45:28.199Z,13.05
2019-06-15T08:47:58.442Z,12.07
2019-06-15T08:50:28.690Z,11.28
2019-06-15T08:52:59.020Z,11.55
2019-06-15T08:55:29.260Z,10.93
2019-06-15T08:57:59.395Z,10.83
2019-06-15T09:00:29.641Z,10.97
2019-06-15T09:02:59.715Z,10.10
2019-06-15T09:05:29.763Z,9.83
2019-06-15T09:07:59.917Z,11.15
2019-06-15T09:10:30.128Z,9.48
2019-06-15T09:13:00.223Z,9.03
2019-06-15T09:15:59.808Z,9.08
2019-06-15T09:18:29.955Z,7.33
2019-06-15T09:21:00.149Z,7.42
2019-06-15T09:23:30.089Z,7.47
2019-06-15T09:26:00.168Z,8.43
2019-06-15T09:28:30.175Z,7.50
2019-06-15T09:31:00.445Z,6.53
2019-06-15T09:33:30.396Z,7.10
2019-06-15T09:36:00.713Z,6.28
2019-06-15T09:38:30.710Z,7.12
2019-06-15T09:41:00.746Z,6.72
2019-06-15T09:43:30.830Z,6.42
2019-06-15T09:46:00.964Z,6.37
2019-06-15T09:48:31.031Z,6.75
2019-06-15T09:51:01.176Z,6.10
2019-06-15T09:53:31.101Z,6.42
2019-06-15T09:56:01.272Z,7.08
2019-06-15T09:58:31.409Z,6.83
2019-06-15T10:01:01.511Z,5.75
2019-06-15T10:03:31.656Z,6.45
2019-06-15T10:06:01.736Z,6.17
2019-06-15T10:08:31.912Z,6.00
2019-06-15T10:11:03.246Z,7.30
2019-06-15T10:13:33.340Z,7.47
2019-06-15T10:16:03.707Z,8.05
2019-06-15T10:18:40.580Z,7.95
2019-06-15T10:21:10.798Z,8.63
2019-06-15T10:23:40.741Z,9.55
2019-06-15T10:26:11.007Z,9.58
2019-06-15T10:28:40.969Z,10.68
2019-06-15T10:31:11.079Z,9.40
2019-06-15T10:33:40.994Z,9.00
2019-06-15T10:36:10.999Z,9.03
2019-06-15T10:38:41.148Z,8.53
2019-06-15T10:41:11.362Z,9.05
2019-06-15T10:43:41.284Z,9.05
2019-06-15T10:46:11.398Z,7.87
2019-06-15T10:48:41.511Z,8.23
2019-06-15T10:51:11.679Z,6.92
2019-06-15T10:53:41.838Z,8.23
2019-06-15T10:56:12.063Z,7.72
2019-06-15T10:58:42.357Z,8.00
2019-06-15T11:01:12.557Z,7.78
2019-06-15T11:03:42.788Z,7.83
2019-06-15T11:06:13.316Z,7.83
2019-06-15T11:08:43.381Z,8.60
2019-06-15T11:11:22.368Z,7.37
2019-06-15T11:13:53.034Z,8.30
2019-06-15T11:16:23.584Z,8.38
2019-06-15T11:18:53.605Z,8.18
2019-06-15T11:21:23.769Z,7.50
2019-06-15T11:23:53.940Z,8.90
2019-06-15T11:26:24.113Z,8.98
2019-06-15T11:28:54.153Z,8.75
2019-06-15T11:31:24.450Z,9.38
2019-06-15T11:33:54.641Z,9.70
2019-06-15T11:36:24.729Z,8.58
2019-06-15T11:38:54.812Z,8.23
2019-06-15T11:41:24.986Z,9.33
2019-06-15T11:43:55.224Z,9.15
2019-06-15T11:46:25.392Z,8.50
2019-06-15T11:48:55.579Z,7.22
2019-06-15T11:51:25.762Z,4.90
2019-06-15T11:53:56.012Z,3.50
2019-06-15T11:56:26.341Z,4.55
2019-06-15T11:58:56.473Z,2.83
2019-06-15T12:01:26.758Z,2.40
2019-06-15T12:03:56.925Z,2.55
2019-06-15T12:06:34.356Z,3.08
2019-06-15T12:09:06.937Z,2.90
2019-06-15T12:11:37.080Z,3.22
2019-06-15T12:14:07.158Z,3.05
2019-06-15T12:16:37.317Z,2.45
2019-06-15T12:19:07.454Z,2.92
2019-06-15T12:21:37.556Z,3.00
2019-06-15T12:24:07.565Z,2.95
2019-06-15T12:26:37.572Z,3.27
2019-06-15T12:29:07.962Z,4.03
2019-06-15T12:31:38.207Z,2.52
2019-06-15T12:34:08.315Z,2.62
2019-06-15T12:36:38.469Z,2.80
2019-06-15T12:39:08.814Z,3.00
2019-06-15T12:41:38.783Z,2.55
2019-06-15T12:44:09.422Z,2.58
2019-06-15T12:46:39.324Z,2.50
2019-06-15T12:49:09.434Z,2.72
2019-06-15T12:51:40.865Z,2.77
2019-06-15T12:54:11.217Z,2.90
2019-06-15T12:56:41.299Z,2.95
2019-06-15T12:59:11.391Z,3.33
2019-06-15T13:01:41.483Z,3.20
2019-06-15T13:04:11.498Z,3.10
2019-06-15T13:06:41.671Z,2.72
2019-06-15T13:09:11.698Z,2.58
2019-06-15T13:11:41.751Z,2.60
2019-06-15T13:14:11.734Z,2.25
2019-06-15T13:16:41.795Z,2.42
2019-06-15T13:19:12.018Z,2.58
2019-06-15T13:21:42.118Z,2.60
2019-06-15T13:24:12.276Z,2.90
2019-06-15T13:26:42.340Z,3.20
2019-06-15T13:29:12.338Z,2.60
2019-06-15T13:31:42.514Z,2.47
2019-06-15T13:34:12.503Z,2.77
2019-06-15T13:36:42.654Z,2.67
2019-06-15T13:39:12.667Z,2.50
2019-06-15T13:41:42.729Z,3.00
2019-06-15T13:44:12.784Z,3.00
2019-06-15T13:46:42.798Z,3.27
2019-06-15T13:49:12.885Z,2.95
2019-06-15T13:51:42.925Z,3.10
2019-06-15T13:54:12.914Z,2.30
2019-06-15T13:56:42.981Z,2.55
2019-06-15T13:59:12.895Z,2.52
2019-06-15T14:01:42.982Z,2.58
2019-06-15T14:04:13.072Z,2.30
2019-06-15T14:06:43.083Z,2.42
2019-06-15T14:09:13.187Z,2.55
2019-06-15T14:11:43.321Z,3.10
2019-06-15T14:14:13.278Z,2.72
2019-06-15T14:16:43.395Z,2.70
2019-06-15T14:19:13.561Z,2.40
2019-06-15T14:21:43.558Z,2.90
2019-06-15T14:24:13.572Z,2.20
2019-06-15T14:26:43.582Z,2.40
2019-06-15T14:29:17.168Z,2.58
2019-06-15T14:31:49.977Z,2.80
2019-06-15T14:34:17.239Z,2.30
2019-06-15T14:36:47.411Z,2.58
2019-06-15T14:39:17.495Z,2.20
2019-06-15T14:41:50.990Z,1.60
2019-06-15T14:44:19.395Z,2.10
2019-06-15T14:46:49.466Z,2.67
2019-06-15T14:49:19.551Z,2.27
2019-06-15T14:51:51.050Z,2.00
2019-06-15T14:54:21.192Z,2.08
2019-06-15T14:56:51.387Z,2.17
2019-06-15T14:59:21.459Z,2.50
2019-06-15T15:02:06.285Z,2.20
2019-06-15T15:04:23.461Z,2.12
2019-06-15T15:06:56.384Z,2.08
2019-06-15T15:09:25.479Z,2.00
2019-06-15T15:11:56.667Z,2.05
2019-06-15T15:14:26.675Z,1.80
2019-06-15T15:16:57.051Z,1.72
2019-06-15T15:19:27.349Z,2.00
2019-06-15T15:21:57.552Z,1.98
2019-06-15T15:24:28.546Z,2.02
2019-06-15T15:26:58.763Z,1.98
2019-06-15T15:29:28.832Z,2.20
2019-06-15T15:31:59.076Z,2.02
2019-06-15T15:34:29.108Z,2.33
2019-06-15T15:36:59.312Z,1.82
2019-06-15T15:39:29.465Z,2.00
2019-06-15T15:41:59.655Z,1.95
2019-06-15T15:44:29.741Z,1.90
2019-06-15T15:46:59.955Z,2.20
2019-06-15T15:49:29.948Z,1.90
2019-06-15T15:52:00.100Z,2.15
2019-06-15T15:54:30.196Z,2.22
2019-06-15T15:57:00.271Z,2.20
2019-06-15T15:59:30.454Z,2.30
2019-06-15T16:02:00.594Z,2.35
2019-06-15T16:04:30.618Z,2.42
2019-06-15T16:07:00.820Z,2.30
2019-06-15T16:09:32.063Z,2.30
2019-06-15T16:12:02.230Z,2.40
2019-06-15T16:14:32.286Z,2.20
2019-06-15T16:17:02.369Z,2.22
2019-06-15T16:19:32.376Z,2.10
2019-06-15T16:22:02.455Z,2.47
2019-06-15T16:24:32.493Z,2.50
2019-06-15T16:27:02.797Z,2.12
2019-06-15T16:29:33.043Z,2.45
2019-06-15T16:32:03.194Z,2.25
2019-06-15T16:34:33.279Z,2.75
2019-06-15T16:37:06.532Z,2.40
2019-06-15T16:39:36.804Z,3.05
2019-06-15T16:42:07.017Z,2.90
2019-06-15T16:44:37.176Z,3.17
2019-06-15T16:47:07.326Z,2.90
2019-06-15T16:49:37.400Z,2.67
2019-06-15T16:52:07.515Z,3.20
2019-06-15T16:54:37.551Z,2.67
2019-06-15T16:57:07.559Z,2.85
2019-06-15T16:59:37.614Z,2.80
2019-06-15T17:02:07.769Z,3.08
2019-06-15T17:04:37.904Z,2.62
2019-06-15T17:07:08.057Z,2.72
2019-06-15T17:09:38.345Z,2.97
2019-06-15T17:12:08.473Z,2.92
2019-06-15T17:14:38.623Z,3.37
2019-06-15T17:17:08.654Z,3.40
2019-06-15T17:19:38.662Z,3.20
2019-06-15T17:22:20.454Z,3.70
2019-06-15T17:24:40.413Z,3.33
2019-06-15T17:27:11.595Z,3.58
2019-06-15T17:29:41.823Z,3.33
2019-06-15T17:32:11.907Z,3.50
2019-06-15T17:34:42.033Z,3.60
2019-06-15T17:37:12.043Z,3.35
2019-06-15T17:39:42.151Z,3.50
2019-06-15T17:42:12.271Z,3.27
2019-06-15T17:44:42.369Z,3.30
2019-06-15T17:47:12.487Z,3.10
2019-06-15T17:49:42.550Z,3.60
2019-06-15T17:52:12.669Z,3.30
2019-06-15T17:54:42.785Z,3.42
2019-06-15T17:57:12.706Z,3.85
2019-06-15T17:59:42.883Z,4.07
2019-06-15T18:02:13.088Z,3.90
2019-06-15T18:04:43.093Z,3.80
2019-06-15T18:07:13.169Z,4.17
2019-06-15T18:09:43.387Z,3.80
2019-06-15T18:12:16.066Z,3.52
2019-06-15T18:14:46.394Z,3.80
2019-06-15T18:17:17.318Z,3.77
2019-06-15T18:19:47.347Z,3.50
2019-06-15T18:22:17.523Z,3.33
2019-06-15T18:24:47.709Z,3.70
2019-06-15T18:27:17.814Z,3.80
2019-06-15T18:29:47.976Z,3.63
2019-06-15T18:32:18.084Z,4.37
2019-06-15T18:34:48.284Z,3.87
2019-06-15T18:37:18.432Z,3.70
2019-06-15T18:39:48.497Z,3.63
2019-06-15T18:42:18.618Z,4.03
2019-06-15T18:44:48.727Z,3.87
2019-06-15T18:47:18.884Z,4.17
2019-06-15T18:49:48.902Z,3.90
2019-06-15T18:52:18.864Z,3.92
2019-06-15T18:54:48.800Z,3.37
2019-06-15T18:57:19.001Z,4.03
2019-06-15T18:59:49.020Z,3.80
2019-06-15T19:02:19.132Z,3.67
2019-06-15T19:04:49.740Z,4.07
2019-06-15T19:07:19.987Z,3.75
2019-06-15T19:09:50.031Z,3.43
2019-06-15T19:12:20.972Z,3.95
2019-06-15T19:14:50.996Z,4.28
2019-06-15T19:17:21.087Z,4.28
2019-06-15T19:19:51.209Z,4.70
2019-06-15T19:22:21.325Z,4.25
2019-06-15T19:24:51.332Z,4.58
2019-06-15T19:27:21.409Z,4.53
2019-06-15T19:29:51.497Z,4.20
2019-06-15T19:32:21.622Z,4.08
2019-06-15T19:34:51.622Z,3.85
2019-06-15T19:37:21.565Z,4.92
2019-06-15T19:39:51.688Z,5.08
2019-06-15T19:42:21.752Z,5.33
2019-06-15T19:44:51.729Z,5.53
2019-06-15T19:47:21.891Z,5.50
2019-06-15T19:49:51.822Z,5.53
2019-06-15T19:52:21.922Z,5.15
2019-06-15T19:54:51.962Z,4.90
2019-06-15T19:57:22.123Z,5.47
2019-06-15T19:59:52.293Z,5.67
2019-06-15T20:02:22.409Z,5.58
2019-06-15T20:05:00.372Z,5.62
2019-06-15T20:07:26.083Z,6.10
2019-06-15T20:09:57.012Z,5.62
2019-06-15T20:12:27.290Z,5.47
2019-06-15T20:14:57.416Z,5.03
2019-06-15T20:17:27.596Z,5.00
2019-06-15T20:19:57.736Z,5.05
2019-06-15T20:22:29.813Z,5.47
2019-06-15T20:24:59.602Z,5.28
2019-06-15T20:27:29.707Z,5.25
2019-06-15T20:29:59.637Z,6.50
2019-06-15T20:32:29.617Z,6.10
2019-06-15T20:35:13.085Z,5.47
2019-06-15T20:37:31.570Z,5.85
2019-06-15T20:40:01.714Z,5.47
2019-06-15T20:42:31.716Z,5.58
2019-06-15T20:45:01.832Z,5.33
2019-06-15T20:47:31.921Z,5.10
2019-06-15T20:50:02.065Z,5.22
2019-06-15T20:52:32.286Z,5.42
2019-06-15T20:55:29.746Z,5.10
2019-06-15T20:57:59.808Z,4.97
2019-06-15T21:00:30.137Z,5.47
2019-06-15T21:03:00.317Z,5.10
2019-06-15T21:05:37.119Z,4.37
2019-06-15T21:08:02.415Z,4.75
2019-06-15T21:10:32.603Z,4.92
2019-06-15T21:13:02.673Z,4.95
2019-06-15T21:15:37.322Z,4.40
2019-06-15T21:18:08.451Z,4.35
2019-06-15T21:20:38.704Z,4.80
2019-06-15T21:23:08.824Z,5.05
2019-06-15T21:25:39.057Z,5.03
2019-06-15T21:28:09.227Z,5.20
2019-06-15T21:30:39.376Z,5.60
2019-06-15T21:33:09.562Z,5.40
2019-06-15T21:35:48.981Z,5.60
2019-06-15T21:38:11.581Z,5.90
2019-06-15T21:40:42.110Z,5.80
2019-06-15T21:43:13.028Z,7.85
2019-06-15T21:45:43.194Z,9.33
2019-06-15T21:48:13.325Z,9.88
2019-06-15T21:50:43.368Z,12.15
2019-06-15T21:53:16.152Z,10.88
2019-06-15T21:55:47.242Z,9.35
2019-06-15T21:58:17.655Z,8.27
2019-06-15T22:01:09.352Z,7.80
2019-06-15T22:03:40.134Z,7.87
2019-06-15T22:06:10.287Z,6.85
2019-06-15T22:08:40.366Z,6.73
2019-06-15T22:11:10.491Z,6.42
2019-06-15T22:13:40.656Z,6.97
2019-06-15T22:16:13.793Z,6.70
2019-06-15T22:18:42.657Z,7.30
2019-06-15T22:21:12.658Z,7.60
2019-06-15T22:23:42.764Z,7.42
2019-06-15T22:26:12.982Z,7.08
2019-06-15T22:28:43.067Z,7.25
2019-06-15T22:31:13.343Z,6.33
2019-06-15T22:33:43.347Z,6.78
2019-06-15T22:36:22.204Z,5.87
2019-06-15T22:38:46.328Z,5.92
2019-06-15T22:41:16.874Z,6.58
2019-06-15T22:43:46.932Z,6.37
2019-06-15T22:46:17.071Z,6.10
2019-06-15T22:48:47.378Z,6.10
2019-06-15T22:51:17.683Z,7.23
2019-06-15T22:53:47.837Z,9.10
2019-06-15T22:56:17.931Z,6.77
2019-06-15T22:58:48.126Z,6.63
2019-06-15T23:01:18.241Z,7.40
2019-06-15T23:03:48.474Z,7.00
2019-06-15T23:06:31.173Z,7.13
2019-06-15T23:08:50.268Z,6.77
2019-06-15T23:11:20.321Z,6.63
2019-06-15T23:13:50.302Z,6.15
2019-06-15T23:16:20.434Z,7.00
2019-06-15T23:18:50.626Z,6.57
2019-06-15T23:21:20.827Z,7.17
2019-06-15T23:23:50.893Z,7.53
2019-06-15T23:26:21.178Z,7.28
2019-06-15T23:28:51.361Z,7.43
2019-06-15T23:31:21.479Z,7.07
2019-06-15T23:33:51.567Z,6.97
2019-06-15T23:36:27.021Z,7.10
2019-06-15T23:38:57.224Z,6.83
2019-06-15T23:41:27.519Z,6.80
2019-06-15T23:43:57.626Z,6.70
2019-06-15T23:46:27.799Z,6.80
2019-06-15T23:48:58.011Z,6.60
2019-06-15T23:51:28.214Z,6.43
2019-06-15T23:53:58.181Z,6.60
2019-06-15T23:56:28.387Z,6.77
2019-06-15T23:58:58.388Z,7.07
